Airfield :
LOGIN :

Register | Disclaimer

   EN    FR    IT 

 










Legend :    VFR   Marginal VFR   IFR   Intensive IFR   Very Intensive IFR
Visi :
Ceiling :
>= 8 km
>= 3000ft
5 to 8 km
1000 to 3000 ft
1500m to 5 km
500 to 1000 ft
800 to 1500m
200 to 500 ft
< 800m
< 200 ft
Symbols :   Thunderstorms  Fog  Heavy snow  Heavy precipitations  Wind > 20 kt
SIGMETs :     Misc.  Thunderstorms  Icing  Turbulence  Mountain Waves  Volcanic Ashes







- Airport Elevation : 1363 ft


ETIC - Grafenwohr Army Air Field

CURRENT METAR :
  • 211256Z AUTO 25011G17KT 9999 BKN033 09/03 A3030 RMK AO2 SLP279 T00940027 FZRANO $

EXPIRED METARs :
  • 211156Z AUTO 28007G15KT 9999 BKN030 BKN035 BKN200 10/04 A3031 RMK AO2 SLP282 T00980042 10101 21026 58008 FZRANO $
  • 211056Z AUTO 00000KT 9999 SCT029 BKN055 07/05 A3032 RMK AO2 SLP288 T00740050 FZRANO $

TAF AMD TAF ETIC
Valid from the 21 at 12:00 until the 22 at 18:00 UTC


211230Z 2112/2218 28009KT 9999 BKN030 OVC050 600303 QNH3030INS
TEMPO 2112/2115 28015G25KT
BECMG 2119/2120 31010G15KT 9000 -SHRA BKN012 OVC025 610305 QNH3033INS
BECMG 2122/2123 27012KT 8000 -SHRA BKN007 OVC012 610254 QNH3032INS
BECMG 2202/2203 30012KT 9999 NSW SCT007 OVC012 600253 QNH3035INS
BECMG 2208/2209 33009KT 9999 SCT012 BKN030 600303 QNH3045INS
BECMG 2211/2212 36009KT 9999 FEW030 SCT050 QNH3045INS TX09/2114Z TNM03/2206Z
No reported NOTAMs for that airfield.



MET'MAP, your aeronautical weather chart ! - Copyright ORBIFLY December 2007 - Disclaimer

ORBIFLY MET'MAP TEAM :

Programming & Development : Alexandra Zaïnal
Concept & Development : Baudouin d'Aumeries
Co-Development & Prog : Marc-Olivier Méhu
Technical & hardware support : Manuel Goepfert

Contact : metmap@orbifly.com




SOURCES & CREDITS :

   NOAA